sensor_id;sensor_type;location;lat;lon;timestamp;pressure;altitude;pressure_sealevel;temperature;humidity
77631;BME280;66798;47.370;8.552;2023-07-08T05:41:51;97127.28;;;19.90;72.26
77631;BME280;66798;47.370;8.552;2023-07-08T05:44:17;97135.47;;;20.02;72.15
77631;BME280;66798;47.370;8.552;2023-07-08T05:46:42;97135.78;;;20.09;68.97
77631;BME280;66798;47.370;8.552;2023-07-08T05:49:07;97137.81;;;20.12;69.21
77631;BME280;66798;47.370;8.552;2023-07-08T05:51:34;97145.03;;;20.21;65.64
77631;BME280;66798;47.370;8.552;2023-07-08T05:53:59;97143.94;;;20.22;68.17
77631;BME280;66798;47.370;8.552;2023-07-08T05:56:24;97148.16;;;20.14;67.96
77631;BME280;66798;47.370;8.552;2023-07-08T05:58:50;97146.28;;;19.97;64.61
77631;BME280;66798;47.370;8.552;2023-07-08T06:01:15;97144.13;;;20.17;66.90
77631;BME280;66798;47.370;8.552;2023-07-08T06:03:41;97144.72;;;20.31;64.42
77631;BME280;66798;47.370;8.552;2023-07-08T06:06:06;97151.44;;;20.54;65.13
77631;BME280;66798;47.370;8.552;2023-07-08T06:08:32;97149.84;;;20.71;64.89
77631;BME280;66798;47.370;8.552;2023-07-08T06:10:57;97149.16;;;21.00;65.90
77631;BME280;66798;47.370;8.552;2023-07-08T06:13:23;97153.47;;;21.22;65.23
77631;BME280;66798;47.370;8.552;2023-07-08T06:15:48;97156.03;;;21.48;64.06
77631;BME280;66798;47.370;8.552;2023-07-08T06:18:14;97157.50;;;21.67;62.87
77631;BME280;66798;47.370;8.552;2023-07-08T06:20:39;97161.97;;;21.83;62.75
77631;BME280;66798;47.370;8.552;2023-07-08T06:23:04;97162.41;;;21.85;61.52
77631;BME280;66798;47.370;8.552;2023-07-08T06:25:31;97164.00;;;21.87;60.20
77631;BME280;66798;47.370;8.552;2023-07-08T06:27:57;97162.88;;;21.88;61.70
77631;BME280;66798;47.370;8.552;2023-07-08T06:30:22;97170.84;;;21.96;61.20
77631;BME280;66798;47.370;8.552;2023-07-08T06:32:48;97168.91;;;22.05;60.64
77631;BME280;66798;47.370;8.552;2023-07-08T06:35:13;97170.72;;;22.14;59.58
77631;BME280;66798;47.370;8.552;2023-07-08T06:37:39;97177.22;;;22.34;58.86
77631;BME280;66798;47.370;8.552;2023-07-08T06:40:05;97175.09;;;22.39;60.18
77631;BME280;66798;47.370;8.552;2023-07-08T06:42:30;97177.75;;;22.60;58.69
77631;BME280;66798;47.370;8.552;2023-07-08T06:44:56;97182.69;;;22.71;58.49
77631;BME280;66798;47.370;8.552;2023-07-08T06:47:21;97170.88;;;22.72;58.79
77631;BME280;66798;47.370;8.552;2023-07-08T06:49:47;97169.28;;;22.71;59.12
77631;BME280;66798;47.370;8.552;2023-07-08T06:52:14;97172.41;;;22.73;58.88
77631;BME280;66798;47.370;8.552;2023-07-08T06:54:40;97173.09;;;22.69;58.38
77631;BME280;66798;47.370;8.552;2023-07-08T06:57:06;97174.09;;;22.65;59.39
77631;BME280;66798;47.370;8.552;2023-07-08T06:59:31;97173.88;;;22.70;57.92
77631;BME280;66798;47.370;8.552;2023-07-08T07:01:57;97171.09;;;22.79;58.29
77631;BME280;66798;47.370;8.552;2023-07-08T07:04:22;97168.81;;;23.02;57.77
77631;BME280;66798;47.370;8.552;2023-07-08T07:06:47;97163.34;;;23.10;56.01
77631;BME280;66798;47.370;8.552;2023-07-08T07:09:13;97156.97;;;23.15;56.69
77631;BME280;66798;47.370;8.552;2023-07-08T07:11:38;97163.03;;;23.12;56.75
77631;BME280;66798;47.370;8.552;2023-07-08T07:14:04;97154.94;;;23.00;57.28
77631;BME280;66798;47.370;8.552;2023-07-08T07:16:29;97145.06;;;22.92;59.01
77631;BME280;66798;47.370;8.552;2023-07-08T07:18:55;97148.72;;;22.75;57.51
77631;BME280;66798;47.370;8.552;2023-07-08T07:21:22;97149.88;;;22.86;57.91
77631;BME280;66798;47.370;8.552;2023-07-08T07:23:47;97144.47;;;22.74;56.92
77631;BME280;66798;47.370;8.552;2023-07-08T07:26:13;97154.72;;;22.59;58.30
77631;BME280;66798;47.370;8.552;2023-07-08T07:28:38;97152.84;;;22.60;59.13
77631;BME280;66798;47.370;8.552;2023-07-08T07:31:04;97141.88;;;22.53;57.60
77631;BME280;66798;47.370;8.552;2023-07-08T07:33:31;97126.44;;;22.50;57.76
77631;BME280;66798;47.370;8.552;2023-07-08T07:35:58;97128.56;;;22.56;58.81
77631;BME280;66798;47.370;8.552;2023-07-08T07:38:23;97132.63;;;22.62;59.05
77631;BME280;66798;47.370;8.552;2023-07-08T07:40:53;97127.38;;;22.66;58.16
77631;BME280;66798;47.370;8.552;2023-07-08T07:43:19;97119.56;;;22.73;58.42
77631;BME280;66798;47.370;8.552;2023-07-08T07:45:44;97121.00;;;22.71;57.01
77631;BME280;66798;47.370;8.552;2023-07-08T07:48:10;97110.06;;;22.76;59.03
77631;BME280;66798;47.370;8.552;2023-07-08T07:50:35;97112.97;;;22.83;58.36
77631;BME280;66798;47.370;8.552;2023-07-08T07:53:01;97109.19;;;22.84;57.09
77631;BME280;66798;47.370;8.552;2023-07-08T07:55:26;97101.03;;;22.93;56.96
77631;BME280;66798;47.370;8.552;2023-07-08T07:57:52;97106.50;;;22.96;57.11
77631;BME280;66798;47.370;8.552;2023-07-08T08:00:17;97104.53;;;23.05;56.41
77631;BME280;66798;47.370;8.552;2023-07-08T08:02:43;97102.31;;;23.07;57.66
77631;BME280;66798;47.370;8.552;2023-07-08T08:05:09;97100.84;;;23.10;57.05
77631;BME280;66798;47.370;8.552;2023-07-08T08:07:34;97102.31;;;23.07;56.47
77631;BME280;66798;47.370;8.552;2023-07-08T08:10:01;97101.72;;;23.14;56.83
77631;BME280;66798;47.370;8.552;2023-07-08T08:12:27;97097.72;;;23.20;57.05
77631;BME280;66798;47.370;8.552;2023-07-08T08:14:52;97089.88;;;23.27;56.21
77631;BME280;66798;47.370;8.552;2023-07-08T08:17:18;97082.13;;;23.38;56.63
77631;BME280;66798;47.370;8.552;2023-07-08T08:19:43;97083.03;;;23.42;56.42
77631;BME280;66798;47.370;8.552;2023-07-08T08:22:09;97080.34;;;23.42;56.56
77631;BME280;66798;47.370;8.552;2023-07-08T08:24:34;97070.13;;;23.60;56.47
77631;BME280;66798;47.370;8.552;2023-07-08T08:27:00;97070.56;;;23.74;55.44
77631;BME280;66798;47.370;8.552;2023-07-08T08:29:25;97068.53;;;23.71;55.46
77631;BME280;66798;47.370;8.552;2023-07-08T08:31:51;97071.16;;;23.96;55.04
77631;BME280;66798;47.370;8.552;2023-07-08T08:34:17;97059.59;;;24.08;54.41
77631;BME280;66798;47.370;8.552;2023-07-08T08:36:43;97062.13;;;24.32;54.29
77631;BME280;66798;47.370;8.552;2023-07-08T08:39:08;97043.44;;;24.52;53.80
77631;BME280;66798;47.370;8.552;2023-07-08T08:41:37;97045.63;;;24.78;54.04
77631;BME280;66798;47.370;8.552;2023-07-08T08:44:04;97032.00;;;24.87;53.69
77631;BME280;66798;47.370;8.552;2023-07-08T08:46:49;97036.22;;;25.19;52.08
77631;BME280;66798;47.370;8.552;2023-07-08T08:51:47;97038.47;;;25.17;52.66
77631;BME280;66798;47.370;8.552;2023-07-08T08:54:13;97037.16;;;24.95;51.96
77631;BME280;66798;47.370;8.552;2023-07-08T08:57:00;97035.06;;;25.05;52.19
77631;BME280;66798;47.370;8.552;2023-07-08T08:59:45;97035.78;;;25.17;52.26
77631;BME280;66798;47.370;8.552;2023-07-08T09:02:51;97032.84;;;25.42;51.83
77631;BME280;66798;47.370;8.552;2023-07-08T09:05:18;97033.22;;;25.60;51.57
77631;BME280;66798;47.370;8.552;2023-07-08T09:10:46;97041.59;;;25.74;51.47
77631;BME280;66798;47.370;8.552;2023-07-08T09:13:35;97024.72;;;25.77;50.36
77631;BME280;66798;47.370;8.552;2023-07-08T09:16:18;97025.69;;;25.69;50.80
77631;BME280;66798;47.370;8.552;2023-07-08T09:18:58;97036.13;;;25.90;50.95
77631;BME280;66798;47.370;8.552;2023-07-08T10:56:20;97039.53;;;27.52;43.63
77631;BME280;66798;47.370;8.552;2023-07-08T10:59:13;97034.66;;;27.65;43.89
77631;BME280;66798;47.370;8.552;2023-07-08T11:07:22;97044.44;;;28.07;42.58
77631;BME280;66798;47.370;8.552;2023-07-08T11:10:15;97046.53;;;28.24;43.57
77631;BME280;66798;47.370;8.552;2023-07-08T11:12:59;97048.19;;;28.32;42.36
77631;BME280;66798;47.370;8.552;2023-07-08T11:16:00;97033.19;;;28.42;41.49
77631;BME280;66798;47.370;8.552;2023-07-08T11:21:17;97033.81;;;28.66;42.56
77631;BME280;66798;47.370;8.552;2023-07-08T11:26:30;97034.13;;;28.57;39.18
77631;BME280;66798;47.370;8.552;2023-07-08T11:28:59;97033.94;;;28.39;40.08
77631;BME280;66798;47.370;8.552;2023-07-08T11:31:29;97024.66;;;28.36;40.27
77631;BME280;66798;47.370;8.552;2023-07-08T11:33:57;97032.84;;;28.44;41.29
77631;BME280;66798;47.370;8.552;2023-07-08T11:36:26;97037.94;;;28.52;42.08
77631;BME280;66798;47.370;8.552;2023-07-08T11:38:55;97033.41;;;28.64;42.18
77631;BME280;66798;47.370;8.552;2023-07-08T11:41:26;97022.66;;;28.74;42.92
77631;BME280;66798;47.370;8.552;2023-07-08T11:44:04;97022.63;;;28.71;40.57
77631;BME280;66798;47.370;8.552;2023-07-08T11:46:32;97020.34;;;28.76;41.27
77631;BME280;66798;47.370;8.552;2023-07-08T11:49:06;97023.09;;;28.80;41.27
77631;BME280;66798;47.370;8.552;2023-07-08T11:51:41;97013.03;;;28.80;41.33
77631;BME280;66798;47.370;8.552;2023-07-08T11:54:20;97012.25;;;28.80;40.88
77631;BME280;66798;47.370;8.552;2023-07-08T11:56:59;97016.59;;;28.95;41.59
77631;BME280;66798;47.370;8.552;2023-07-08T11:59:29;97013.69;;;29.18;43.18
77631;BME280;66798;47.370;8.552;2023-07-08T12:04:56;97008.03;;;28.86;43.12
77631;BME280;66798;47.370;8.552;2023-07-08T12:07:38;97013.41;;;28.79;43.11
77631;BME280;66798;47.370;8.552;2023-07-08T12:10:27;97005.22;;;28.72;43.64
77631;BME280;66798;47.370;8.552;2023-07-08T12:12:53;97016.81;;;28.69;42.35
77631;BME280;66798;47.370;8.552;2023-07-08T12:15:26;97016.50;;;28.81;44.24
77631;BME280;66798;47.370;8.552;2023-07-08T12:17:56;97013.28;;;28.65;43.77
77631;BME280;66798;47.370;8.552;2023-07-08T12:20:28;97003.81;;;28.92;42.22
77631;BME280;66798;47.370;8.552;2023-07-08T12:22:54;97003.50;;;29.05;43.60
77631;BME280;66798;47.370;8.552;2023-07-08T12:25:24;97007.41;;;29.07;42.98
77631;BME280;66798;47.370;8.552;2023-07-08T12:27:50;97009.84;;;29.23;43.71
77631;BME280;66798;47.370;8.552;2023-07-08T12:30:16;97005.22;;;29.31;41.70
77631;BME280;66798;47.370;8.552;2023-07-08T12:32:44;97004.75;;;29.11;42.55
77631;BME280;66798;47.370;8.552;2023-07-08T12:37:58;97006.13;;;28.87;43.48
77631;BME280;66798;47.370;8.552;2023-07-08T12:40:26;97002.06;;;28.63;43.58
77631;BME280;66798;47.370;8.552;2023-07-08T12:42:52;96999.75;;;28.65;42.75
77631;BME280;66798;47.370;8.552;2023-07-08T12:45:21;97003.31;;;28.72;42.26
77631;BME280;66798;47.370;8.552;2023-07-08T12:47:47;96997.16;;;28.79;42.72
77631;BME280;66798;47.370;8.552;2023-07-08T12:50:15;96996.25;;;28.61;43.15
77631;BME280;66798;47.370;8.552;2023-07-08T12:52:46;96994.09;;;28.36;44.58
77631;BME280;66798;47.370;8.552;2023-07-08T12:55:14;96996.53;;;28.48;44.11
77631;BME280;66798;47.370;8.552;2023-07-08T12:57:44;96996.78;;;28.36;43.15
77631;BME280;66798;47.370;8.552;2023-07-08T13:00:16;96991.38;;;28.36;43.47
77631;BME280;66798;47.370;8.552;2023-07-08T13:02:46;96984.06;;;28.40;43.81
77631;BME280;66798;47.370;8.552;2023-07-08T13:05:12;96992.38;;;28.58;44.31
77631;BME280;66798;47.370;8.552;2023-07-08T13:07:41;96981.63;;;28.69;44.47
77631;BME280;66798;47.370;8.552;2023-07-08T13:10:18;96979.97;;;28.53;43.44
77631;BME280;66798;47.370;8.552;2023-07-08T13:12:45;96977.59;;;28.48;43.41
77631;BME280;66798;47.370;8.552;2023-07-08T13:15:19;96980.56;;;28.36;45.38
77631;BME280;66798;47.370;8.552;2023-07-08T13:17:46;96976.72;;;28.37;43.89
77631;BME280;66798;47.370;8.552;2023-07-08T13:20:17;96984.84;;;28.41;43.95
77631;BME280;66798;47.370;8.552;2023-07-08T13:22:51;96980.69;;;28.50;42.80
77631;BME280;66798;47.370;8.552;2023-07-08T13:25:18;96979.94;;;28.50;43.22
77631;BME280;66798;47.370;8.552;2023-07-08T13:27:56;96968.84;;;28.66;43.25
77631;BME280;66798;47.370;8.552;2023-07-08T13:30:25;96968.50;;;28.74;43.20
77631;BME280;66798;47.370;8.552;2023-07-08T13:32:59;96967.03;;;28.84;42.68
77631;BME280;66798;47.370;8.552;2023-07-08T13:35:39;96968.25;;;28.97;42.43
77631;BME280;66798;47.370;8.552;2023-07-08T13:38:11;96959.00;;;28.98;41.44
77631;BME280;66798;47.370;8.552;2023-07-08T13:40:46;96966.47;;;29.16;41.81
77631;BME280;66798;47.370;8.552;2023-07-08T13:43:12;96963.41;;;29.32;41.26
77631;BME280;66798;47.370;8.552;2023-07-08T13:45:44;96959.59;;;29.43;39.35
77631;BME280;66798;47.370;8.552;2023-07-08T13:48:48;96963.53;;;29.53;39.95
77631;BME280;66798;47.370;8.552;2023-07-08T13:51:19;96960.44;;;29.62;39.05
77631;BME280;66798;47.370;8.552;2023-07-08T13:53:56;96962.44;;;29.79;38.60
77631;BME280;66798;47.370;8.552;2023-07-08T13:56:33;96953.50;;;29.72;38.18
77631;BME280;66798;47.370;8.552;2023-07-08T13:59:11;96959.75;;;29.83;39.50
77631;BME280;66798;47.370;8.552;2023-07-08T14:01:39;96955.47;;;29.78;39.28
77631;BME280;66798;47.370;8.552;2023-07-08T14:04:06;96949.66;;;29.76;38.92
77631;BME280;66798;47.370;8.552;2023-07-08T14:06:37;96958.16;;;29.71;38.19
77631;BME280;66798;47.370;8.552;2023-07-08T14:09:13;96951.50;;;29.54;36.75
77631;BME280;66798;47.370;8.552;2023-07-08T14:11:39;96950.34;;;29.52;36.68
77631;BME280;66798;47.370;8.552;2023-07-08T14:14:05;96944.91;;;29.55;37.14
77631;BME280;66798;47.370;8.552;2023-07-08T14:16:34;96951.09;;;29.41;36.65
77631;BME280;66798;47.370;8.552;2023-07-08T14:19:06;96948.38;;;29.41;36.54
77631;BME280;66798;47.370;8.552;2023-07-08T14:21:35;96948.00;;;29.47;35.30
77631;BME280;66798;47.370;8.552;2023-07-08T14:24:00;96938.69;;;29.48;36.36
77631;BME280;66798;47.370;8.552;2023-07-08T14:26:28;96944.09;;;29.37;35.37
77631;BME280;66798;47.370;8.552;2023-07-08T14:28:54;96937.16;;;29.50;36.07
77631;BME280;66798;47.370;8.552;2023-07-08T14:31:25;96939.13;;;29.53;36.16
77631;BME280;66798;47.370;8.552;2023-07-08T14:34:04;96933.31;;;29.51;35.50
77631;BME280;66798;47.370;8.552;2023-07-08T14:36:31;96937.19;;;29.54;36.52
77631;BME280;66798;47.370;8.552;2023-07-08T14:38:56;96928.19;;;29.28;34.93
77631;BME280;66798;47.370;8.552;2023-07-08T14:41:23;96926.63;;;29.24;33.89
77631;BME280;66798;47.370;8.552;2023-07-08T14:43:48;96937.06;;;29.21;35.15
77631;BME280;66798;47.370;8.552;2023-07-08T14:46:14;96928.59;;;29.30;35.16
77631;BME280;66798;47.370;8.552;2023-07-08T14:48:42;96929.38;;;29.34;35.18
77631;BME280;66798;47.370;8.552;2023-07-08T14:51:08;96928.19;;;29.28;35.04
77631;BME280;66798;47.370;8.552;2023-07-08T14:53:33;96919.28;;;29.28;34.25
77631;BME280;66798;47.370;8.552;2023-07-08T14:56:07;96928.59;;;29.37;35.66
77631;BME280;66798;47.370;8.552;2023-07-08T14:58:40;96922.03;;;29.46;34.95
77631;BME280;66798;47.370;8.552;2023-07-08T15:01:17;96922.06;;;29.53;36.09
77631;BME280;66798;47.370;8.552;2023-07-08T15:03:44;96919.69;;;29.33;35.24
77631;BME280;66798;47.370;8.552;2023-07-08T15:06:12;96922.44;;;29.44;36.14
77631;BME280;66798;47.370;8.552;2023-07-08T15:08:38;96922.84;;;29.50;36.78
77631;BME280;66798;47.370;8.552;2023-07-08T15:11:04;96919.75;;;29.55;35.88
77631;BME280;66798;47.370;8.552;2023-07-08T15:13:33;96922.41;;;29.40;35.78
77631;BME280;66798;47.370;8.552;2023-07-08T15:15:59;96927.38;;;29.24;36.15
77631;BME280;66798;47.370;8.552;2023-07-08T15:18:25;96917.72;;;29.27;35.41
77631;BME280;66798;47.370;8.552;2023-07-08T15:20:50;96917.75;;;29.30;35.00
77631;BME280;66798;47.370;8.552;2023-07-08T15:23:16;96923.13;;;29.27;34.28
77631;BME280;66798;47.370;8.552;2023-07-08T15:25:44;96915.34;;;29.14;35.10
77631;BME280;66798;47.370;8.552;2023-07-08T15:28:34;96911.41;;;29.05;34.97
77631;BME280;66798;47.370;8.552;2023-07-08T15:31:02;96913.00;;;29.09;35.00
77631;BME280;66798;47.370;8.552;2023-07-08T15:33:28;96911.91;;;29.21;34.50
77631;BME280;66798;47.370;8.552;2023-07-08T15:35:54;96904.56;;;29.29;35.63
77631;BME280;66798;47.370;8.552;2023-07-08T15:38:19;96909.25;;;29.35;35.74
77631;BME280;66798;47.370;8.552;2023-07-08T15:40:45;96908.47;;;29.38;35.60
77631;BME280;66798;47.370;8.552;2023-07-08T15:43:13;96911.97;;;29.42;35.19
77631;BME280;66798;47.370;8.552;2023-07-08T15:45:40;96906.16;;;29.48;34.92
77631;BME280;66798;47.370;8.552;2023-07-08T15:48:17;96908.13;;;29.54;34.32
77631;BME280;66798;47.370;8.552;2023-07-08T15:50:43;96905.03;;;29.52;34.57
77631;BME280;66798;47.370;8.552;2023-07-08T15:53:10;96910.81;;;29.51;33.50
77631;BME280;66798;47.370;8.552;2023-07-08T15:55:41;96906.97;;;29.52;33.82
77631;BME280;66798;47.370;8.552;2023-07-08T15:58:27;96902.31;;;29.49;33.37
77631;BME280;66798;47.370;8.552;2023-07-08T16:00:54;96909.69;;;29.52;34.81
77631;BME280;66798;47.370;8.552;2023-07-08T16:03:31;96909.28;;;29.50;33.87
77631;BME280;66798;47.370;8.552;2023-07-08T16:05:58;96904.25;;;29.55;35.33
77631;BME280;66798;47.370;8.552;2023-07-08T16:08:25;96901.56;;;29.59;34.54
77631;BME280;66798;47.370;8.552;2023-07-08T16:10:58;96901.22;;;29.68;34.46
77631;BME280;66798;47.370;8.552;2023-07-08T16:13:32;96898.88;;;29.70;35.38
77631;BME280;66798;47.370;8.552;2023-07-08T16:15:59;96900.00;;;29.65;33.16
77631;BME280;66798;47.370;8.552;2023-07-08T16:18:24;96899.63;;;29.63;34.32
77631;BME280;66798;47.370;8.552;2023-07-08T16:20:50;96896.13;;;29.59;34.33
77631;BME280;66798;47.370;8.552;2023-07-08T16:23:16;96893.00;;;29.50;34.17
77631;BME280;66798;47.370;8.552;2023-07-08T16:25:49;96896.13;;;29.55;34.12
77631;BME280;66798;47.370;8.552;2023-07-08T16:28:34;96899.22;;;29.54;35.26
77631;BME280;66798;47.370;8.552;2023-07-08T16:31:13;96900.38;;;29.49;34.37
77631;BME280;66798;47.370;8.552;2023-07-08T16:33:40;96904.63;;;29.47;34.98
77631;BME280;66798;47.370;8.552;2023-07-08T16:36:12;96905.34;;;29.29;34.57
77631;BME280;66798;47.370;8.552;2023-07-08T16:38:38;96908.81;;;29.26;34.12
77631;BME280;66798;47.370;8.552;2023-07-08T16:41:03;96899.53;;;29.24;34.82
77631;BME280;66798;47.370;8.552;2023-07-08T16:43:31;96909.59;;;29.23;34.80
77631;BME280;66798;47.370;8.552;2023-07-08T16:45:58;96907.28;;;29.25;36.74
77631;BME280;66798;47.370;8.552;2023-07-08T16:48:23;96911.91;;;29.25;35.02
77631;BME280;66798;47.370;8.552;2023-07-08T16:50:49;96907.28;;;29.25;34.96
77631;BME280;66798;47.370;8.552;2023-07-08T16:53:14;96908.84;;;29.33;34.79
77631;BME280;66798;47.370;8.552;2023-07-08T16:55:40;96898.78;;;29.37;34.94
77631;BME280;66798;47.370;8.552;2023-07-08T16:58:09;96909.22;;;29.32;34.16
77631;BME280;66798;47.370;8.552;2023-07-08T17:00:36;96901.88;;;29.32;34.82
77631;BME280;66798;47.370;8.552;2023-07-08T17:03:03;96906.16;;;29.37;35.71
77631;BME280;66798;47.370;8.552;2023-07-08T17:05:33;96904.59;;;29.43;36.18
77631;BME280;66798;47.370;8.552;2023-07-08T17:07:59;96898.41;;;29.39;35.81
77631;BME280;66798;47.370;8.552;2023-07-08T17:10:25;96894.94;;;29.46;35.63
77631;BME280;66798;47.370;8.552;2023-07-08T17:12:51;96896.09;;;29.41;35.87
77631;BME280;66798;47.370;8.552;2023-07-08T17:15:19;96897.63;;;29.38;35.42
77631;BME280;66798;47.370;8.552;2023-07-08T17:17:53;96896.47;;;29.36;36.01
77631;BME280;66798;47.370;8.552;2023-07-08T17:20:23;96898.78;;;29.37;36.27
77631;BME280;66798;47.370;8.552;2023-07-08T17:22:49;96889.91;;;29.37;36.30
77631;BME280;66798;47.370;8.552;2023-07-08T17:25:18;96902.66;;;29.36;36.23
77631;BME280;66798;47.370;8.552;2023-07-08T17:27:44;96898.41;;;29.35;36.07
77631;BME280;66798;47.370;8.552;2023-07-08T17:30:12;96899.56;;;29.34;36.35
77631;BME280;66798;47.370;8.552;2023-07-08T17:32:41;96899.53;;;29.31;36.00
77631;BME280;66798;47.370;8.552;2023-07-08T17:35:13;96897.97;;;29.26;36.60
77631;BME280;66798;47.370;8.552;2023-07-08T17:37:40;96907.25;;;29.21;36.53
77631;BME280;66798;47.370;8.552;2023-07-08T17:40:14;96902.19;;;29.16;36.47
77631;BME280;66798;47.370;8.552;2023-07-08T17:42:40;96900.22;;;29.06;36.63
77631;BME280;66798;47.370;8.552;2023-07-08T17:45:08;96906.72;;;28.98;36.61
77631;BME280;66798;47.370;8.552;2023-07-08T17:47:34;96908.31;;;29.02;37.25
77631;BME280;66798;47.370;8.552;2023-07-08T17:50:00;96906.00;;;29.01;36.80
77631;BME280;66798;47.370;8.552;2023-07-08T17:52:25;96909.03;;;28.92;36.84
77631;BME280;66798;47.370;8.552;2023-07-08T17:54:52;96908.25;;;28.92;36.90
77631;BME280;66798;47.370;8.552;2023-07-08T17:57:18;96917.56;;;28.94;36.53
77631;BME280;66798;47.370;8.552;2023-07-08T17:59:46;96917.97;;;28.96;36.62
77631;BME280;66798;47.370;8.552;2023-07-08T18:02:15;96916.38;;;28.95;36.19
77631;BME280;66798;47.370;8.552;2023-07-08T18:04:42;96914.00;;;28.79;36.63
77631;BME280;66798;47.370;8.552;2023-07-08T18:07:07;96916.72;;;28.83;36.42
77631;BME280;66798;47.370;8.552;2023-07-08T18:09:33;96910.53;;;28.86;36.64
77631;BME280;66798;47.370;8.552;2023-07-08T18:11:59;96920.59;;;28.82;37.10
77631;BME280;66798;47.370;8.552;2023-07-08T18:14:24;96914.38;;;28.78;36.03
77631;BME280;66798;47.370;8.552;2023-07-08T18:16:50;96917.03;;;28.71;36.06
77631;BME280;66798;47.370;8.552;2023-07-08T18:19:16;96924.75;;;28.65;35.93
77631;BME280;66798;47.370;8.552;2023-07-08T18:21:43;96924.75;;;28.65;35.99
77631;BME280;66798;47.370;8.552;2023-07-08T18:24:11;96920.78;;;28.55;36.37
77631;BME280;66798;47.370;8.552;2023-07-08T18:26:39;96925.84;;;28.57;36.00
77631;BME280;66798;47.370;8.552;2023-07-08T18:29:05;96925.88;;;28.61;36.26
77631;BME280;66798;47.370;8.552;2023-07-08T18:31:33;96925.84;;;28.57;35.86
77631;BME280;66798;47.370;8.552;2023-07-08T18:34:02;96925.47;;;28.58;36.79
77631;BME280;66798;47.370;8.552;2023-07-08T18:36:31;96921.91;;;28.47;36.43
77631;BME280;66798;47.370;8.552;2023-07-08T18:38:57;96936.13;;;28.41;36.94
77631;BME280;66798;47.370;8.552;2023-07-08T18:41:27;96941.88;;;28.32;36.93
77631;BME280;66798;47.370;8.552;2023-07-08T18:43:55;96929.44;;;28.24;36.55
77631;BME280;66798;47.370;8.552;2023-07-08T18:46:21;96940.25;;;28.20;36.74
77631;BME280;66798;47.370;8.552;2023-07-08T18:48:47;96944.13;;;28.26;36.88
77631;BME280;66798;47.370;8.552;2023-07-08T18:51:16;96943.41;;;28.29;36.63
77631;BME280;66798;47.370;8.552;2023-07-08T18:53:43;96949.13;;;28.21;36.96
77631;BME280;66798;47.370;8.552;2023-07-08T18:56:14;96949.88;;;28.17;36.62
77631;BME280;66798;47.370;8.552;2023-07-08T18:58:43;96945.97;;;28.11;37.30
77631;BME280;66798;47.370;8.552;2023-07-08T19:01:20;96953.66;;;28.09;37.40
77631;BME280;66798;47.370;8.552;2023-07-08T19:03:48;96957.53;;;28.12;37.25
77631;BME280;66798;47.370;8.552;2023-07-08T19:06:16;96962.13;;;28.04;37.88
77631;BME280;66798;47.370;8.552;2023-07-08T19:08:44;96952.06;;;28.01;37.63
77631;BME280;66798;47.370;8.552;2023-07-08T19:11:18;96949.31;;;27.98;38.30
77631;BME280;66798;47.370;8.552;2023-07-08T19:13:44;96963.16;;;27.92;38.99
77631;BME280;66798;47.370;8.552;2023-07-08T19:16:11;96965.38;;;27.83;39.68
77631;BME280;66798;47.370;8.552;2023-07-08T19:18:38;96967.63;;;27.78;39.21
77631;BME280;66798;47.370;8.552;2023-07-08T19:21:09;96973.72;;;27.67;39.27
77631;BME280;66798;47.370;8.552;2023-07-08T19:23:40;96976.34;;;27.64;39.64
77631;BME280;66798;47.370;8.552;2023-07-08T19:26:12;96976.63;;;27.55;41.04
77631;BME280;66798;47.370;8.552;2023-07-08T19:28:39;96978.13;;;27.49;41.28
77631;BME280;66798;47.370;8.552;2023-07-08T19:31:23;96988.44;;;27.40;41.15
77631;BME280;66798;47.370;8.552;2023-07-08T19:33:51;96997.56;;;27.31;41.54
77631;BME280;66798;47.370;8.552;2023-07-08T19:36:18;96994.78;;;27.24;41.55
77631;BME280;66798;47.370;8.552;2023-07-08T19:38:49;96999.25;;;27.13;41.48
77631;BME280;66798;47.370;8.552;2023-07-08T19:41:21;97002.97;;;27.05;41.94
77631;BME280;66798;47.370;8.552;2023-07-08T19:43:49;97006.06;;;27.03;42.25
77631;BME280;66798;47.370;8.552;2023-07-08T19:46:15;97009.06;;;26.98;42.28
77631;BME280;66798;47.370;8.552;2023-07-08T19:48:44;97017.13;;;26.95;42.33
77631;BME280;66798;47.370;8.552;2023-07-08T19:51:13;97014.72;;;26.89;42.63
77631;BME280;66798;47.370;8.552;2023-07-08T19:53:39;97016.56;;;26.82;43.59
77631;BME280;66798;47.370;8.552;2023-07-08T19:56:17;97017.63;;;26.77;42.43
77631;BME280;66798;47.370;8.552;2023-07-08T19:58:44;97019.06;;;26.71;42.85
77631;BME280;66798;47.370;8.552;2023-07-08T20:01:10;97014.75;;;26.66;42.99
77631;BME280;66798;47.370;8.552;2023-07-08T20:03:36;97025.81;;;26.58;43.18
77631;BME280;66798;47.370;8.552;2023-07-08T20:06:13;97032.19;;;26.49;44.66
77631;BME280;66798;47.370;8.552;2023-07-08T20:08:39;97032.84;;;26.43;44.20
77631;BME280;66798;47.370;8.552;2023-07-08T20:11:05;97028.91;;;26.37;44.52
77631;BME280;66798;47.370;8.552;2023-07-08T20:13:32;97037.34;;;26.35;43.98
77631;BME280;66798;47.370;8.552;2023-07-08T20:16:01;97036.09;;;26.29;44.13
77631;BME280;66798;47.370;8.552;2023-07-08T20:18:32;97039.06;;;26.24;44.29
77631;BME280;66798;47.370;8.552;2023-07-08T20:20:58;97042.69;;;26.12;45.62
77631;BME280;66798;47.370;8.552;2023-07-08T20:23:26;97044.63;;;26.12;45.33
77631;BME280;66798;47.370;8.552;2023-07-08T20:25:52;97042.94;;;26.03;45.91
77631;BME280;66798;47.370;8.552;2023-07-08T20:28:23;97044.31;;;25.94;46.50
77631;BME280;66798;47.370;8.552;2023-07-08T20:30:53;97045.72;;;25.88;46.77
77631;BME280;66798;47.370;8.552;2023-07-08T20:33:20;97041.78;;;25.85;46.09
77631;BME280;66798;47.370;8.552;2023-07-08T20:35:46;97055.06;;;25.74;47.12
77631;BME280;66798;47.370;8.552;2023-07-08T20:38:12;97050.38;;;25.71;48.31
77631;BME280;66798;47.370;8.552;2023-07-08T20:40:38;97051.84;;;25.69;46.61
77631;BME280;66798;47.370;8.552;2023-07-08T20:43:15;97055.91;;;25.59;47.69
77631;BME280;66798;47.370;8.552;2023-07-08T20:45:44;97052.84;;;25.60;46.95
77631;BME280;66798;47.370;8.552;2023-07-08T20:48:22;97050.69;;;25.50;48.25